sensor_id;sensor_type;location;lat;lon;timestamp;P1;durP1;ratioP1;P2;durP2;ratioP2
18653;SDS011;9456;47.824;16.228;2023-01-25T00:01:07;17.37;;;13.17;;
18653;SDS011;9456;47.824;16.228;2023-01-25T00:03:37;17.53;;;12.73;;
18653;SDS011;9456;47.824;16.228;2023-01-25T00:06:07;17.47;;;12.57;;
18653;SDS011;9456;47.824;16.228;2023-01-25T00:08:36;16.60;;;12.27;;
18653;SDS011;9456;47.824;16.228;2023-01-25T00:11:05;17.77;;;13.07;;
18653;SDS011;9456;47.824;16.228;2023-01-25T00:13:35;16.90;;;12.33;;
18653;SDS011;9456;47.824;16.228;2023-01-25T00:16:04;15.43;;;11.23;;
18653;SDS011;9456;47.824;16.228;2023-01-25T00:18:34;17.50;;;12.00;;
18653;SDS011;9456;47.824;16.228;2023-01-25T00:21:11;16.70;;;13.03;;
18653;SDS011;9456;47.824;16.228;2023-01-25T00:23:41;17.50;;;11.63;;
18653;SDS011;9456;47.824;16.228;2023-01-25T00:26:10;13.37;;;11.27;;
18653;SDS011;9456;47.824;16.228;2023-01-25T00:28:39;16.87;;;12.03;;
18653;SDS011;9456;47.824;16.228;2023-01-25T00:31:10;17.07;;;11.73;;
18653;SDS011;9456;47.824;16.228;2023-01-25T00:33:48;19.47;;;12.43;;
18653;SDS011;9456;47.824;16.228;2023-01-25T00:36:26;15.90;;;10.63;;
18653;SDS011;9456;47.824;16.228;2023-01-25T00:38:56;16.27;;;12.07;;
18653;SDS011;9456;47.824;16.228;2023-01-25T00:41:26;17.80;;;12.57;;
18653;SDS011;9456;47.824;16.228;2023-01-25T00:43:56;17.17;;;12.10;;
18653;SDS011;9456;47.824;16.228;2023-01-25T00:46:25;14.50;;;10.33;;
18653;SDS011;9456;47.824;16.228;2023-01-25T00:48:54;16.83;;;11.23;;
18653;SDS011;9456;47.824;16.228;2023-01-25T00:51:23;17.13;;;10.90;;
18653;SDS011;9456;47.824;16.228;2023-01-25T00:53:53;16.17;;;11.23;;
18653;SDS011;9456;47.824;16.228;2023-01-25T00:56:22;16.27;;;10.93;;
18653;SDS011;9456;47.824;16.228;2023-01-25T00:58:51;16.13;;;11.00;;
18653;SDS011;9456;47.824;16.228;2023-01-25T01:01:21;16.50;;;11.80;;
18653;SDS011;9456;47.824;16.228;2023-01-25T01:03:52;16.33;;;11.20;;
18653;SDS011;9456;47.824;16.228;2023-01-25T01:06:21;17.30;;;12.03;;
18653;SDS011;9456;47.824;16.228;2023-01-25T01:08:50;18.87;;;12.17;;
18653;SDS011;9456;47.824;16.228;2023-01-25T01:11:20;16.70;;;11.83;;
18653;SDS011;9456;47.824;16.228;2023-01-25T01:13:49;16.90;;;11.83;;
18653;SDS011;9456;47.824;16.228;2023-01-25T01:16:18;15.67;;;11.63;;
18653;SDS011;9456;47.824;16.228;2023-01-25T01:18:48;16.93;;;12.30;;
18653;SDS011;9456;47.824;16.228;2023-01-25T01:21:17;17.50;;;11.70;;
18653;SDS011;9456;47.824;16.228;2023-01-25T01:23:47;16.70;;;11.90;;
18653;SDS011;9456;47.824;16.228;2023-01-25T01:26:16;17.77;;;12.00;;
18653;SDS011;9456;47.824;16.228;2023-01-25T01:28:46;18.03;;;11.73;;
18653;SDS011;9456;47.824;16.228;2023-01-25T01:31:16;16.27;;;11.60;;
18653;SDS011;9456;47.824;16.228;2023-01-25T01:33:47;15.80;;;11.47;;
18653;SDS011;9456;47.824;16.228;2023-01-25T01:36:17;15.97;;;12.07;;
18653;SDS011;9456;47.824;16.228;2023-01-25T01:38:46;16.30;;;12.70;;
18653;SDS011;9456;47.824;16.228;2023-01-25T01:41:15;16.80;;;11.70;;
18653;SDS011;9456;47.824;16.228;2023-01-25T01:43:45;15.73;;;11.67;;
18653;SDS011;9456;47.824;16.228;2023-01-25T01:46:16;15.87;;;12.30;;
18653;SDS011;9456;47.824;16.228;2023-01-25T01:48:46;17.33;;;12.20;;
18653;SDS011;9456;47.824;16.228;2023-01-25T01:51:16;17.70;;;12.77;;
18653;SDS011;9456;47.824;16.228;2023-01-25T01:53:46;17.23;;;12.63;;
18653;SDS011;9456;47.824;16.228;2023-01-25T01:56:14;18.00;;;12.60;;
18653;SDS011;9456;47.824;16.228;2023-01-25T01:58:43;17.60;;;12.23;;
18653;SDS011;9456;47.824;16.228;2023-01-25T02:01:13;18.20;;;12.40;;
18653;SDS011;9456;47.824;16.228;2023-01-25T02:03:42;19.30;;;12.83;;
18653;SDS011;9456;47.824;16.228;2023-01-25T02:06:13;18.77;;;12.97;;
18653;SDS011;9456;47.824;16.228;2023-01-25T02:08:41;18.00;;;13.20;;
18653;SDS011;9456;47.824;16.228;2023-01-25T02:11:11;20.67;;;13.57;;
18653;SDS011;9456;47.824;16.228;2023-01-25T02:13:40;17.93;;;13.07;;
18653;SDS011;9456;47.824;16.228;2023-01-25T02:16:11;17.20;;;13.20;;
18653;SDS011;9456;47.824;16.228;2023-01-25T02:18:41;16.73;;;13.03;;
18653;SDS011;9456;47.824;16.228;2023-01-25T02:21:11;18.13;;;13.43;;
18653;SDS011;9456;47.824;16.228;2023-01-25T02:23:42;17.90;;;12.60;;
18653;SDS011;9456;47.824;16.228;2023-01-25T02:26:14;17.80;;;13.27;;
18653;SDS011;9456;47.824;16.228;2023-01-25T02:28:44;18.47;;;12.93;;
18653;SDS011;9456;47.824;16.228;2023-01-25T02:31:15;19.00;;;13.27;;
18653;SDS011;9456;47.824;16.228;2023-01-25T02:33:44;20.67;;;13.10;;
18653;SDS011;9456;47.824;16.228;2023-01-25T02:36:15;18.43;;;12.87;;
18653;SDS011;9456;47.824;16.228;2023-01-25T02:38:49;18.63;;;13.83;;
18653;SDS011;9456;47.824;16.228;2023-01-25T02:41:20;17.67;;;12.70;;
18653;SDS011;9456;47.824;16.228;2023-01-25T02:43:49;17.70;;;12.50;;
18653;SDS011;9456;47.824;16.228;2023-01-25T02:46:21;18.43;;;13.23;;
18653;SDS011;9456;47.824;16.228;2023-01-25T02:48:51;18.93;;;13.10;;
18653;SDS011;9456;47.824;16.228;2023-01-25T02:51:20;18.17;;;13.17;;
18653;SDS011;9456;47.824;16.228;2023-01-25T02:53:49;17.57;;;13.10;;
18653;SDS011;9456;47.824;16.228;2023-01-25T02:56:18;19.47;;;12.90;;
18653;SDS011;9456;47.824;16.228;2023-01-25T02:58:48;18.27;;;13.00;;
18653;SDS011;9456;47.824;16.228;2023-01-25T03:01:17;18.40;;;14.17;;
18653;SDS011;9456;47.824;16.228;2023-01-25T03:03:46;22.60;;;14.93;;
18653;SDS011;9456;47.824;16.228;2023-01-25T03:06:16;17.90;;;13.93;;
18653;SDS011;9456;47.824;16.228;2023-01-25T03:08:46;20.00;;;13.87;;
18653;SDS011;9456;47.824;16.228;2023-01-25T03:11:16;18.63;;;13.10;;
18653;SDS011;9456;47.824;16.228;2023-01-25T03:13:45;18.60;;;13.07;;
18653;SDS011;9456;47.824;16.228;2023-01-25T03:16:14;21.73;;;13.83;;
18653;SDS011;9456;47.824;16.228;2023-01-25T03:18:43;20.60;;;13.73;;
18653;SDS011;9456;47.824;16.228;2023-01-25T03:21:14;18.97;;;13.60;;
18653;SDS011;9456;47.824;16.228;2023-01-25T03:23:42;18.37;;;13.77;;
18653;SDS011;9456;47.824;16.228;2023-01-25T03:26:13;20.60;;;14.40;;
18653;SDS011;9456;47.824;16.228;2023-01-25T03:28:41;18.07;;;13.30;;
18653;SDS011;9456;47.824;16.228;2023-01-25T03:31:11;19.47;;;14.30;;
18653;SDS011;9456;47.824;16.228;2023-01-25T03:33:40;20.30;;;14.07;;
18653;SDS011;9456;47.824;16.228;2023-01-25T03:36:09;20.80;;;14.37;;
18653;SDS011;9456;47.824;16.228;2023-01-25T03:38:39;19.10;;;14.13;;
18653;SDS011;9456;47.824;16.228;2023-01-25T03:41:08;20.07;;;14.93;;
18653;SDS011;9456;47.824;16.228;2023-01-25T03:43:38;20.83;;;13.70;;
18653;SDS011;9456;47.824;16.228;2023-01-25T03:46:07;19.40;;;14.97;;
18653;SDS011;9456;47.824;16.228;2023-01-25T03:48:37;19.50;;;13.80;;
18653;SDS011;9456;47.824;16.228;2023-01-25T03:51:06;20.47;;;13.60;;
18653;SDS011;9456;47.824;16.228;2023-01-25T03:53:36;18.63;;;14.00;;
18653;SDS011;9456;47.824;16.228;2023-01-25T03:56:07;18.17;;;13.13;;
18653;SDS011;9456;47.824;16.228;2023-01-25T03:58:37;19.97;;;14.43;;
18653;SDS011;9456;47.824;16.228;2023-01-25T04:01:06;20.10;;;13.77;;
18653;SDS011;9456;47.824;16.228;2023-01-25T04:03:35;19.53;;;13.80;;
18653;SDS011;9456;47.824;16.228;2023-01-25T04:06:04;17.80;;;13.47;;
18653;SDS011;9456;47.824;16.228;2023-01-25T04:08:34;22.63;;;15.47;;
18653;SDS011;9456;47.824;16.228;2023-01-25T04:11:04;22.73;;;14.27;;
18653;SDS011;9456;47.824;16.228;2023-01-25T04:13:33;18.77;;;14.80;;
18653;SDS011;9456;47.824;16.228;2023-01-25T04:16:02;18.13;;;13.10;;
18653;SDS011;9456;47.824;16.228;2023-01-25T04:18:32;18.20;;;13.67;;
18653;SDS011;9456;47.824;16.228;2023-01-25T04:21:02;15.83;;;12.40;;
18653;SDS011;9456;47.824;16.228;2023-01-25T04:23:31;17.43;;;12.63;;
18653;SDS011;9456;47.824;16.228;2023-01-25T04:26:01;20.37;;;13.87;;
18653;SDS011;9456;47.824;16.228;2023-01-25T04:28:30;18.67;;;13.03;;
18653;SDS011;9456;47.824;16.228;2023-01-25T04:31:00;19.33;;;13.27;;
18653;SDS011;9456;47.824;16.228;2023-01-25T04:33:30;16.73;;;12.17;;
18653;SDS011;9456;47.824;16.228;2023-01-25T04:35:59;15.27;;;11.67;;
18653;SDS011;9456;47.824;16.228;2023-01-25T04:38:28;17.80;;;12.93;;
18653;SDS011;9456;47.824;16.228;2023-01-25T04:40:58;19.00;;;13.23;;
18653;SDS011;9456;47.824;16.228;2023-01-25T04:43:27;16.70;;;12.37;;
18653;SDS011;9456;47.824;16.228;2023-01-25T04:45:56;20.77;;;13.23;;
18653;SDS011;9456;47.824;16.228;2023-01-25T04:48:26;28.43;;;17.47;;
18653;SDS011;9456;47.824;16.228;2023-01-25T04:50:59;38.37;;;22.53;;
18653;SDS011;9456;47.824;16.228;2023-01-25T04:53:28;28.07;;;18.50;;
18653;SDS011;9456;47.824;16.228;2023-01-25T04:55:57;24.80;;;16.27;;
18653;SDS011;9456;47.824;16.228;2023-01-25T04:58:27;22.20;;;15.83;;
18653;SDS011;9456;47.824;16.228;2023-01-25T05:00:59;22.03;;;12.93;;
18653;SDS011;9456;47.824;16.228;2023-01-25T05:03:29;19.20;;;14.23;;
18653;SDS011;9456;47.824;16.228;2023-01-25T05:05:58;17.73;;;12.00;;
18653;SDS011;9456;47.824;16.228;2023-01-25T05:08:28;17.33;;;12.37;;
18653;SDS011;9456;47.824;16.228;2023-01-25T05:10:57;16.60;;;12.33;;
18653;SDS011;9456;47.824;16.228;2023-01-25T05:13:26;16.70;;;12.17;;
18653;SDS011;9456;47.824;16.228;2023-01-25T05:15:56;33.33;;;17.47;;
18653;SDS011;9456;47.824;16.228;2023-01-25T05:18:25;23.80;;;14.87;;
18653;SDS011;9456;47.824;16.228;2023-01-25T05:20:54;39.70;;;20.50;;
18653;SDS011;9456;47.824;16.228;2023-01-25T05:23:24;16.43;;;12.30;;
18653;SDS011;9456;47.824;16.228;2023-01-25T05:25:53;17.13;;;13.53;;
18653;SDS011;9456;47.824;16.228;2023-01-25T05:28:40;15.77;;;11.77;;
18653;SDS011;9456;47.824;16.228;2023-01-25T05:31:09;17.83;;;12.70;;
18653;SDS011;9456;47.824;16.228;2023-01-25T05:33:39;16.57;;;12.23;;
18653;SDS011;9456;47.824;16.228;2023-01-25T05:36:08;17.07;;;12.30;;
18653;SDS011;9456;47.824;16.228;2023-01-25T05:38:37;20.47;;;14.23;;
18653;SDS011;9456;47.824;16.228;2023-01-25T05:41:07;18.43;;;12.90;;
18653;SDS011;9456;47.824;16.228;2023-01-25T05:43:36;17.13;;;11.53;;
18653;SDS011;9456;47.824;16.228;2023-01-25T05:46:05;15.87;;;11.17;;
18653;SDS011;9456;47.824;16.228;2023-01-25T05:48:34;12.27;;;9.67;;
18653;SDS011;9456;47.824;16.228;2023-01-25T05:51:04;17.13;;;11.23;;
18653;SDS011;9456;47.824;16.228;2023-01-25T05:53:34;15.57;;;10.13;;
18653;SDS011;9456;47.824;16.228;2023-01-25T05:56:04;14.27;;;10.53;;
18653;SDS011;9456;47.824;16.228;2023-01-25T05:58:35;14.83;;;10.23;;
18653;SDS011;9456;47.824;16.228;2023-01-25T06:01:05;16.37;;;11.97;;
18653;SDS011;9456;47.824;16.228;2023-01-25T06:03:34;16.53;;;11.47;;
18653;SDS011;9456;47.824;16.228;2023-01-25T06:06:03;15.63;;;10.67;;
18653;SDS011;9456;47.824;16.228;2023-01-25T06:08:32;15.67;;;11.97;;
18653;SDS011;9456;47.824;16.228;2023-01-25T06:11:06;18.10;;;11.40;;
18653;SDS011;9456;47.824;16.228;2023-01-25T06:13:35;15.93;;;11.77;;
18653;SDS011;9456;47.824;16.228;2023-01-25T06:16:06;16.97;;;12.00;;
18653;SDS011;9456;47.824;16.228;2023-01-25T06:18:35;15.57;;;11.07;;
18653;SDS011;9456;47.824;16.228;2023-01-25T06:21:05;18.97;;;13.33;;
18653;SDS011;9456;47.824;16.228;2023-01-25T06:23:35;18.07;;;10.83;;
18653;SDS011;9456;47.824;16.228;2023-01-25T06:26:07;14.63;;;11.00;;
18653;SDS011;9456;47.824;16.228;2023-01-25T06:28:36;15.23;;;11.43;;
18653;SDS011;9456;47.824;16.228;2023-01-25T06:31:06;17.37;;;11.40;;
18653;SDS011;9456;47.824;16.228;2023-01-25T06:33:35;15.60;;;11.20;;
18653;SDS011;9456;47.824;16.228;2023-01-25T06:36:05;15.57;;;11.90;;
18653;SDS011;9456;47.824;16.228;2023-01-25T06:38:35;16.93;;;11.17;;
18653;SDS011;9456;47.824;16.228;2023-01-25T06:41:05;17.87;;;12.17;;
18653;SDS011;9456;47.824;16.228;2023-01-25T06:43:33;18.33;;;12.57;;
18653;SDS011;9456;47.824;16.228;2023-01-25T06:46:03;20.53;;;12.23;;
18653;SDS011;9456;47.824;16.228;2023-01-25T06:48:31;19.37;;;12.37;;
18653;SDS011;9456;47.824;16.228;2023-01-25T06:51:01;21.20;;;14.07;;
18653;SDS011;9456;47.824;16.228;2023-01-25T06:53:30;21.80;;;13.33;;
18653;SDS011;9456;47.824;16.228;2023-01-25T06:58:43;26.17;;;16.30;;
18653;SDS011;9456;47.824;16.228;2023-01-25T07:01:13;26.90;;;19.63;;
18653;SDS011;9456;47.824;16.228;2023-01-25T07:03:41;32.27;;;24.47;;
18653;SDS011;9456;47.824;16.228;2023-01-25T07:06:10;24.50;;;17.83;;
18653;SDS011;9456;47.824;16.228;2023-01-25T07:08:39;20.73;;;13.60;;
18653;SDS011;9456;47.824;16.228;2023-01-25T07:11:09;23.33;;;13.97;;
18653;SDS011;9456;47.824;16.228;2023-01-25T07:13:38;20.93;;;14.07;;
18653;SDS011;9456;47.824;16.228;2023-01-25T07:16:09;33.57;;;20.50;;
18653;SDS011;9456;47.824;16.228;2023-01-25T07:18:36;22.17;;;13.77;;
18653;SDS011;9456;47.824;16.228;2023-01-25T07:21:06;20.17;;;13.90;;
18653;SDS011;9456;47.824;16.228;2023-01-25T07:23:35;22.23;;;14.83;;
18653;SDS011;9456;47.824;16.228;2023-01-25T07:26:05;17.70;;;11.73;;
18653;SDS011;9456;47.824;16.228;2023-01-25T07:28:33;18.43;;;13.00;;
18653;SDS011;9456;47.824;16.228;2023-01-25T07:31:05;22.70;;;12.60;;
18653;SDS011;9456;47.824;16.228;2023-01-25T07:33:34;17.00;;;11.80;;
18653;SDS011;9456;47.824;16.228;2023-01-25T07:36:04;16.87;;;12.30;;
18653;SDS011;9456;47.824;16.228;2023-01-25T07:38:35;18.50;;;12.43;;
18653;SDS011;9456;47.824;16.228;2023-01-25T07:41:03;16.43;;;11.83;;
18653;SDS011;9456;47.824;16.228;2023-01-25T07:43:33;17.93;;;13.07;;
18653;SDS011;9456;47.824;16.228;2023-01-25T07:46:02;19.03;;;12.43;;
18653;SDS011;9456;47.824;16.228;2023-01-25T07:48:31;19.57;;;13.07;;
18653;SDS011;9456;47.824;16.228;2023-01-25T07:51:00;21.63;;;13.77;;
18653;SDS011;9456;47.824;16.228;2023-01-25T07:53:38;21.47;;;13.27;;
18653;SDS011;9456;47.824;16.228;2023-01-25T07:56:07;17.43;;;11.17;;
18653;SDS011;9456;47.824;16.228;2023-01-25T07:58:36;19.93;;;12.53;;
18653;SDS011;9456;47.824;16.228;2023-01-25T08:01:06;20.70;;;14.10;;
18653;SDS011;9456;47.824;16.228;2023-01-25T08:03:36;25.87;;;13.20;;
18653;SDS011;9456;47.824;16.228;2023-01-25T08:06:06;21.40;;;14.03;;
18653;SDS011;9456;47.824;16.228;2023-01-25T08:08:35;25.73;;;16.83;;
18653;SDS011;9456;47.824;16.228;2023-01-25T08:11:07;21.73;;;14.43;;
18653;SDS011;9456;47.824;16.228;2023-01-25T08:13:36;22.67;;;15.30;;
18653;SDS011;9456;47.824;16.228;2023-01-25T08:16:05;19.80;;;14.20;;
18653;SDS011;9456;47.824;16.228;2023-01-25T08:18:34;21.40;;;13.83;;
18653;SDS011;9456;47.824;16.228;2023-01-25T08:21:03;21.87;;;14.67;;
18653;SDS011;9456;47.824;16.228;2023-01-25T08:23:33;19.77;;;14.23;;
18653;SDS011;9456;47.824;16.228;2023-01-25T08:26:02;19.17;;;13.63;;
18653;SDS011;9456;47.824;16.228;2023-01-25T08:28:31;18.90;;;13.43;;
18653;SDS011;9456;47.824;16.228;2023-01-25T08:31:07;22.07;;;14.83;;
18653;SDS011;9456;47.824;16.228;2023-01-25T08:33:36;24.60;;;15.53;;
18653;SDS011;9456;47.824;16.228;2023-01-25T08:36:05;20.27;;;13.07;;
18653;SDS011;9456;47.824;16.228;2023-01-25T08:38:35;19.80;;;13.77;;
18653;SDS011;9456;47.824;16.228;2023-01-25T08:41:04;21.90;;;14.30;;
18653;SDS011;9456;47.824;16.228;2023-01-25T08:43:33;26.23;;;15.20;;
18653;SDS011;9456;47.824;16.228;2023-01-25T08:46:02;21.30;;;14.30;;
18653;SDS011;9456;47.824;16.228;2023-01-25T08:48:32;20.20;;;14.23;;
18653;SDS011;9456;47.824;16.228;2023-01-25T08:51:02;30.03;;;18.37;;
18653;SDS011;9456;47.824;16.228;2023-01-25T08:53:31;22.00;;;13.97;;
18653;SDS011;9456;47.824;16.228;2023-01-25T08:56:04;20.53;;;13.17;;
18653;SDS011;9456;47.824;16.228;2023-01-25T08:58:33;32.07;;;18.03;;
18653;SDS011;9456;47.824;16.228;2023-01-25T09:03:45;18.57;;;12.20;;
18653;SDS011;9456;47.824;16.228;2023-01-25T09:06:13;17.73;;;10.43;;
18653;SDS011;9456;47.824;16.228;2023-01-25T09:08:42;15.70;;;10.87;;
18653;SDS011;9456;47.824;16.228;2023-01-25T09:11:12;16.40;;;10.83;;
18653;SDS011;9456;47.824;16.228;2023-01-25T09:13:40;16.67;;;11.63;;
18653;SDS011;9456;47.824;16.228;2023-01-25T09:16:11;12.43;;;9.30;;
18653;SDS011;9456;47.824;16.228;2023-01-25T09:18:39;17.60;;;11.00;;
18653;SDS011;9456;47.824;16.228;2023-01-25T09:21:08;14.10;;;9.53;;
18653;SDS011;9456;47.824;16.228;2023-01-25T09:23:37;18.70;;;11.63;;
18653;SDS011;9456;47.824;16.228;2023-01-25T09:26:06;20.53;;;13.37;;
18653;SDS011;9456;47.824;16.228;2023-01-25T09:28:35;57.43;;;36.73;;
18653;SDS011;9456;47.824;16.228;2023-01-25T09:31:05;42.33;;;28.43;;
18653;SDS011;9456;47.824;16.228;2023-01-25T09:33:34;22.87;;;15.90;;
18653;SDS011;9456;47.824;16.228;2023-01-25T09:36:03;16.70;;;11.13;;
18653;SDS011;9456;47.824;16.228;2023-01-25T09:38:34;25.90;;;14.97;;
18653;SDS011;9456;47.824;16.228;2023-01-25T09:41:08;31.77;;;20.80;;
18653;SDS011;9456;47.824;16.228;2023-01-25T09:43:44;18.97;;;12.93;;
18653;SDS011;9456;47.824;16.228;2023-01-25T09:46:18;40.13;;;23.17;;
18653;SDS011;9456;47.824;16.228;2023-01-25T09:48:49;28.10;;;18.90;;
18653;SDS011;9456;47.824;16.228;2023-01-25T09:51:21;23.07;;;15.70;;
18653;SDS011;9456;47.824;16.228;2023-01-25T09:53:49;16.67;;;12.03;;
18653;SDS011;9456;47.824;16.228;2023-01-25T09:56:20;18.30;;;11.97;;
18653;SDS011;9456;47.824;16.228;2023-01-25T09:58:49;24.33;;;14.97;;
18653;SDS011;9456;47.824;16.228;2023-01-25T10:01:21;20.87;;;11.90;;
18653;SDS011;9456;47.824;16.228;2023-01-25T10:03:56;30.70;;;16.90;;
18653;SDS011;9456;47.824;16.228;2023-01-25T10:06:30;29.37;;;17.30;;
18653;SDS011;9456;47.824;16.228;2023-01-25T10:08:59;47.57;;;26.83;;
18653;SDS011;9456;47.824;16.228;2023-01-25T10:11:29;101.10;;;47.50;;
18653;SDS011;9456;47.824;16.228;2023-01-25T10:13:58;64.27;;;28.73;;
18653;SDS011;9456;47.824;16.228;2023-01-25T10:16:28;72.53;;;33.70;;
18653;SDS011;9456;47.824;16.228;2023-01-25T10:19:00;55.40;;;28.93;;
18653;SDS011;9456;47.824;16.228;2023-01-25T10:21:31;46.83;;;26.23;;
18653;SDS011;9456;47.824;16.228;2023-01-25T10:24:13;25.97;;;17.17;;
18653;SDS011;9456;47.824;16.228;2023-01-25T10:27:03;34.67;;;21.13;;
18653;SDS011;9456;47.824;16.228;2023-01-25T10:29:31;23.87;;;13.83;;
18653;SDS011;9456;47.824;16.228;2023-01-25T10:32:01;29.17;;;17.27;;
18653;SDS011;9456;47.824;16.228;2023-01-25T10:34:32;26.50;;;17.23;;
18653;SDS011;9456;47.824;16.228;2023-01-25T10:37:04;20.27;;;12.97;;
18653;SDS011;9456;47.824;16.228;2023-01-25T10:39:30;23.03;;;13.97;;
18653;SDS011;9456;47.824;16.228;2023-01-25T10:41:59;21.97;;;12.90;;
18653;SDS011;9456;47.824;16.228;2023-01-25T10:44:28;19.93;;;13.33;;
18653;SDS011;9456;47.824;16.228;2023-01-25T10:46:58;17.53;;;11.83;;
18653;SDS011;9456;47.824;16.228;2023-01-25T10:49:28;19.30;;;12.27;;
18653;SDS011;9456;47.824;16.228;2023-01-25T10:51:56;19.83;;;12.43;;
18653;SDS011;9456;47.824;16.228;2023-01-25T10:54:28;18.07;;;11.97;;
18653;SDS011;9456;47.824;16.228;2023-01-25T10:56:57;18.30;;;12.70;;
18653;SDS011;9456;47.824;16.228;2023-01-25T10:59:26;25.37;;;13.97;;
18653;SDS011;9456;47.824;16.228;2023-01-25T11:01:55;24.87;;;14.13;;
18653;SDS011;9456;47.824;16.228;2023-01-25T11:04:27;18.70;;;12.30;;
18653;SDS011;9456;47.824;16.228;2023-01-25T11:07:02;16.20;;;10.57;;
18653;SDS011;9456;47.824;16.228;2023-01-25T11:09:32;15.07;;;11.27;;
18653;SDS011;9456;47.824;16.228;2023-01-25T11:12:03;16.73;;;11.33;;
18653;SDS011;9456;47.824;16.228;2023-01-25T11:14:32;15.87;;;10.73;;
18653;SDS011;9456;47.824;16.228;2023-01-25T11:17:02;21.50;;;11.63;;
18653;SDS011;9456;47.824;16.228;2023-01-25T11:19:34;16.10;;;11.70;;
18653;SDS011;9456;47.824;16.228;2023-01-25T11:22:03;21.73;;;13.27;;
18653;SDS011;9456;47.824;16.228;2023-01-25T11:24:32;18.30;;;12.63;;
18653;SDS011;9456;47.824;16.228;2023-01-25T11:30:09;15.57;;;10.63;;
18653;SDS011;9456;47.824;16.228;2023-01-25T11:32:38;19.60;;;12.57;;
18653;SDS011;9456;47.824;16.228;2023-01-25T11:35:12;18.27;;;12.27;;
18653;SDS011;9456;47.824;16.228;2023-01-25T11:38:01;20.67;;;12.70;;
18653;SDS011;9456;47.824;16.228;2023-01-25T11:40:31;21.27;;;12.70;;
18653;SDS011;9456;47.824;16.228;2023-01-25T11:43:01;17.90;;;11.73;;
18653;SDS011;9456;47.824;16.228;2023-01-25T11:48:26;21.30;;;12.83;;
18653;SDS011;9456;47.824;16.228;2023-01-25T11:51:21;21.40;;;13.50;;
18653;SDS011;9456;47.824;16.228;2023-01-25T11:53:54;17.03;;;11.97;;
18653;SDS011;9456;47.824;16.228;2023-01-25T11:56:37;18.27;;;12.70;;
18653;SDS011;9456;47.824;16.228;2023-01-25T11:59:12;17.40;;;12.90;;
18653;SDS011;9456;47.824;16.228;2023-01-25T12:01:44;18.77;;;13.10;;
18653;SDS011;9456;47.824;16.228;2023-01-25T12:04:34;20.83;;;13.07;;
18653;SDS011;9456;47.824;16.228;2023-01-25T12:07:12;17.53;;;12.23;;
18653;SDS011;9456;47.824;16.228;2023-01-25T12:09:50;19.43;;;12.73;;
18653;SDS011;9456;47.824;16.228;2023-01-25T12:12:30;51.67;;;23.63;;
18653;SDS011;9456;47.824;16.228;2023-01-25T12:15:04;50.20;;;27.70;;
18653;SDS011;9456;47.824;16.228;2023-01-25T12:17:38;19.60;;;13.70;;
18653;SDS011;9456;47.824;16.228;2023-01-25T12:20:16;21.00;;;14.67;;
18653;SDS011;9456;47.824;16.228;2023-01-25T12:23:09;18.77;;;13.17;;
18653;SDS011;9456;47.824;16.228;2023-01-25T12:25:50;22.53;;;12.13;;
18653;SDS011;9456;47.824;16.228;2023-01-25T12:28:24;18.90;;;13.93;;
18653;SDS011;9456;47.824;16.228;2023-01-25T12:30:53;20.83;;;13.20;;
18653;SDS011;9456;47.824;16.228;2023-01-25T12:33:23;22.90;;;14.93;;
18653;SDS011;9456;47.824;16.228;2023-01-25T12:35:52;20.33;;;13.67;;
18653;SDS011;9456;47.824;16.228;2023-01-25T12:38:23;19.57;;;12.87;;
18653;SDS011;9456;47.824;16.228;2023-01-25T12:40:52;21.47;;;15.27;;
18653;SDS011;9456;47.824;16.228;2023-01-25T12:43:25;20.83;;;14.40;;
18653;SDS011;9456;47.824;16.228;2023-01-25T12:45:54;19.00;;;13.77;;
18653;SDS011;9456;47.824;16.228;2023-01-25T12:48:26;24.03;;;15.13;;
18653;SDS011;9456;47.824;16.228;2023-01-25T12:50:54;21.00;;;14.00;;
18653;SDS011;9456;47.824;16.228;2023-01-25T12:53:24;22.83;;;14.93;;
18653;SDS011;9456;47.824;16.228;2023-01-25T12:55:52;21.73;;;15.27;;
18653;SDS011;9456;47.824;16.228;2023-01-25T12:58:23;19.80;;;13.83;;
18653;SDS011;9456;47.824;16.228;2023-01-25T13:00:54;21.57;;;13.70;;
18653;SDS011;9456;47.824;16.228;2023-01-25T13:03:26;28.93;;;17.33;;
18653;SDS011;9456;47.824;16.228;2023-01-25T13:05:57;28.87;;;18.97;;
18653;SDS011;9456;47.824;16.228;2023-01-25T13:08:29;24.83;;;16.73;;
18653;SDS011;9456;47.824;16.228;2023-01-25T13:11:10;18.07;;;13.43;;
18653;SDS011;9456;47.824;16.228;2023-01-25T13:13:40;31.77;;;18.53;;
18653;SDS011;9456;47.824;16.228;2023-01-25T13:18:59;19.57;;;13.50;;
18653;SDS011;9456;47.824;16.228;2023-01-25T13:21:39;20.87;;;14.27;;
18653;SDS011;9456;47.824;16.228;2023-01-25T13:26:59;18.80;;;13.67;;
18653;SDS011;9456;47.824;16.228;2023-01-25T13:35:31;20.07;;;13.47;;
18653;SDS011;9456;47.824;16.228;2023-01-25T13:38:23;22.00;;;15.73;;
18653;SDS011;9456;47.824;16.228;2023-01-25T13:44:07;51.47;;;27.57;;
18653;SDS011;9456;47.824;16.228;2023-01-25T13:46:36;25.30;;;17.77;;
18653;SDS011;9456;47.824;16.228;2023-01-25T13:49:05;21.20;;;14.83;;
18653;SDS011;9456;47.824;16.228;2023-01-25T13:51:35;24.13;;;15.93;;
18653;SDS011;9456;47.824;16.228;2023-01-25T13:54:03;24.53;;;17.47;;
18653;SDS011;9456;47.824;16.228;2023-01-25T13:56:40;24.63;;;17.37;;
18653;SDS011;9456;47.824;16.228;2023-01-25T13:59:22;37.37;;;25.70;;
18653;SDS011;9456;47.824;16.228;2023-01-25T14:01:51;26.33;;;18.30;;
18653;SDS011;9456;47.824;16.228;2023-01-25T14:04:20;22.93;;;15.23;;
18653;SDS011;9456;47.824;16.228;2023-01-25T14:06:53;23.43;;;15.63;;
18653;SDS011;9456;47.824;16.228;2023-01-25T14:09:21;20.97;;;14.83;;
18653;SDS011;9456;47.824;16.228;2023-01-25T14:14:30;23.30;;;16.43;;
18653;SDS011;9456;47.824;16.228;2023-01-25T14:17:03;27.10;;;17.63;;
18653;SDS011;9456;47.824;16.228;2023-01-25T14:19:34;25.00;;;17.10;;
18653;SDS011;9456;47.824;16.228;2023-01-25T14:22:21;22.90;;;16.60;;
18653;SDS011;9456;47.824;16.228;2023-01-25T14:24:48;28.07;;;17.73;;
18653;SDS011;9456;47.824;16.228;2023-01-25T14:27:28;33.87;;;21.83;;
18653;SDS011;9456;47.824;16.228;2023-01-25T14:29:57;37.90;;;21.83;;
18653;SDS011;9456;47.824;16.228;2023-01-25T14:32:26;28.10;;;20.40;;
18653;SDS011;9456;47.824;16.228;2023-01-25T14:34:55;37.77;;;22.17;;
18653;SDS011;9456;47.824;16.228;2023-01-25T14:37:24;31.23;;;20.10;;
18653;SDS011;9456;47.824;16.228;2023-01-25T14:39:53;35.63;;;21.40;;
18653;SDS011;9456;47.824;16.228;2023-01-25T14:42:22;45.83;;;29.60;;
18653;SDS011;9456;47.824;16.228;2023-01-25T14:44:51;40.77;;;25.43;;
18653;SDS011;9456;47.824;16.228;2023-01-25T14:47:20;37.77;;;22.30;;
18653;SDS011;9456;47.824;16.228;2023-01-25T14:49:52;32.57;;;21.47;;
18653;SDS011;9456;47.824;16.228;2023-01-25T14:52:22;27.33;;;16.53;;
18653;SDS011;9456;47.824;16.228;2023-01-25T14:54:51;32.33;;;21.07;;
18653;SDS011;9456;47.824;16.228;2023-01-25T14:57:29;30.00;;;19.20;;
18653;SDS011;9456;47.824;16.228;2023-01-25T14:59:58;40.00;;;24.33;;
18653;SDS011;9456;47.824;16.228;2023-01-25T15:02:28;50.40;;;28.43;;
18653;SDS011;9456;47.824;16.228;2023-01-25T15:04:58;51.13;;;28.90;;
18653;SDS011;9456;47.824;16.228;2023-01-25T15:07:33;35.67;;;21.93;;
18653;SDS011;9456;47.824;16.228;2023-01-25T15:10:11;40.63;;;24.03;;